Time;durP1;ratioP1;P1;durP2;ratioP2;P2;SDS_P1;SDS_P2;PMS_P1;PMS_P2;Temp;Humidity;BMP_temperature;BMP_pressure;BME280_temperature;BME280_humidity;BME280_pressure;Samples;Min_cycle;Max_cycle;Signal;HPM_P1;HPM_P2
2021/04/02 00:02:25;;;;;;;10.18;5.43;;;9.30;99.90;;;;;;5067105;28;20503;-71
2021/04/02 00:04:51;;;;;;;12.45;5.93;;;9.20;99.90;;;;;;5067618;28;20078;-71
2021/04/02 00:07:17;;;;;;;14.65;6.22;;;9.30;99.90;;;;;;5063870;28;20028;-71
2021/04/02 00:09:42;;;;;;;13.48;5.55;;;9.30;99.90;;;;;;5077056;28;20392;-70
2021/04/02 00:12:09;;;;;;;16.48;6.25;;;9.20;99.90;;;;;;5075422;28;20115;-71
2021/04/02 00:14:35;;;;;;;13.07;5.57;;;9.20;99.90;;;;;;5071952;28;20017;-71
2021/04/02 00:17:01;;;;;;;17.25;7.05;;;9.20;99.90;;;;;;5075389;28;20036;-70
2021/04/02 00:19:26;;;;;;;11.57;6.22;;;9.20;99.90;;;;;;5071821;28;20028;-71
2021/04/02 00:21:53;;;;;;;16.95;6.15;;;9.20;99.90;;;;;;5077654;28;20431;-71
2021/04/02 00:24:19;;;;;;;17.45;5.90;;;9.10;99.90;;;;;;5077608;28;20036;-71
2021/04/02 00:26:44;;;;;;;14.20;5.93;;;9.10;99.90;;;;;;5074545;28;20036;-71
2021/04/02 00:29:11;;;;;;;14.85;6.13;;;9.00;99.90;;;;;;5071307;28;20035;-71
2021/04/02 00:31:36;;;;;;;12.05;5.63;;;9.00;99.90;;;;;;5063696;28;20070;-71
2021/04/02 00:34:04;;;;;;;14.25;6.15;;;8.90;99.90;;;;;;5074821;28;20381;-71
2021/04/02 00:36:30;;;;;;;14.10;6.10;;;8.90;99.90;;;;;;5075982;28;20032;-71
2021/04/02 00:38:56;;;;;;;16.13;5.82;;;8.90;99.90;;;;;;5061564;28;20084;-71
2021/04/02 00:41:22;;;;;;;9.35;6.35;;;8.80;99.90;;;;;;5079685;28;20155;-71
2021/04/02 00:43:50;;;;;;;12.48;6.30;;;8.90;99.90;;;;;;5066404;28;20546;-70
2021/04/02 00:46:18;;;;;;;12.75;5.75;;;8.80;99.90;;;;;;5069731;28;20032;-71
2021/04/02 00:48:47;;;;;;;15.52;6.63;;;8.80;99.90;;;;;;5076386;28;20077;-70
2021/04/02 00:51:21;;;;;;;16.95;6.18;;;8.80;99.90;;;;;;5074351;28;20066;-71
2021/04/02 00:53:48;;;;;;;13.82;6.63;;;8.70;99.90;;;;;;5071439;28;20031;-70
2021/04/02 00:56:14;;;;;;;16.42;5.40;;;8.70;99.90;;;;;;5063380;28;20491;-71
2021/04/02 00:58:42;;;;;;;10.50;5.43;;;8.70;99.90;;;;;;5074969;28;20111;-71
2021/04/02 01:01:09;;;;;;;13.45;5.90;;;8.70;99.90;;;;;;5074951;28;20027;-70
2021/04/02 01:03:35;;;;;;;14.88;5.78;;;8.50;99.90;;;;;;5076831;28;20017;-71
2021/04/02 01:06:05;;;;;;;14.52;6.15;;;8.40;99.90;;;;;;5074770;28;20057;-70
2021/04/02 01:08:33;;;;;;;13.55;4.97;;;8.40;99.90;;;;;;5072400;28;20024;-71
2021/04/02 01:11:02;;;;;;;12.15;5.75;;;8.30;99.90;;;;;;5073129;28;20037;-71
2021/04/02 01:13:30;;;;;;;14.60;5.55;;;8.30;99.90;;;;;;5075424;28;20023;-71
2021/04/02 01:15:59;;;;;;;12.52;5.60;;;8.20;99.90;;;;;;5072041;28;20034;-71
2021/04/02 01:19:09;;;;;;;14.80;6.68;;;8.30;99.90;;;;;;5075010;28;20085;-71
2021/04/02 01:21:41;;;;;;;15.82;6.05;;;8.20;99.90;;;;;;5074414;28;20388;-70
2021/04/02 01:24:13;;;;;;;12.23;6.05;;;8.10;99.90;;;;;;5076919;28;20033;-70
2021/04/02 01:27:02;;;;;;;12.98;5.55;;;8.00;99.90;;;;;;5079587;28;20048;-71
2021/04/02 01:29:54;;;;;;;16.48;6.65;;;7.90;99.90;;;;;;5072403;28;20123;-71
2021/04/02 01:32:24;;;;;;;13.25;6.05;;;7.80;99.90;;;;;;5070326;28;20060;-70
2021/04/02 01:34:53;;;;;;;14.63;5.68;;;7.90;99.90;;;;;;5070510;28;20028;-71
2021/04/02 01:37:34;;;;;;;14.23;6.53;;;7.90;99.90;;;;;;5069324;28;20032;-70
2021/04/02 01:40:03;;;;;;;11.57;5.70;;;7.80;99.90;;;;;;5070923;28;20031;-70
2021/04/02 01:42:31;;;;;;;12.50;6.35;;;7.80;99.90;;;;;;5074168;28;20020;-71
2021/04/02 01:44:58;;;;;;;13.60;6.00;;;7.70;99.90;;;;;;5070974;28;20020;-70
2021/04/02 01:47:26;;;;;;;11.60;6.03;;;7.60;99.90;;;;;;5065159;28;20415;-71
2021/04/02 01:49:54;;;;;;;12.13;5.93;;;7.60;99.90;;;;;;5057906;28;20369;-71
2021/04/02 01:52:23;;;;;;;14.55;6.13;;;7.70;99.90;;;;;;5065087;28;20035;-71
2021/04/02 01:54:49;;;;;;;12.55;5.25;;;7.70;99.90;;;;;;5064182;28;20068;-71
2021/04/02 01:57:17;;;;;;;15.32;6.18;;;7.60;99.90;;;;;;5063191;28;20024;-71
2021/04/02 01:59:44;;;;;;;13.00;6.22;;;7.50;99.90;;;;;;5071647;28;20027;-70
2021/04/02 02:02:10;;;;;;;15.57;6.65;;;7.50;99.90;;;;;;5063757;28;20024;-71
2021/04/02 02:04:38;;;;;;;19.67;6.32;;;7.50;99.90;;;;;;5067832;28;20047;-70
2021/04/02 02:07:05;;;;;;;14.95;6.35;;;7.50;99.90;;;;;;5061909;28;20491;-70
2021/04/02 02:09:34;;;;;;;15.82;6.38;;;7.60;99.90;;;;;;5067928;28;20037;-71
2021/04/02 02:12:03;;;;;;;14.65;5.30;;;7.60;99.90;;;;;;5067877;28;20021;-70
2021/04/02 02:14:32;;;;;;;12.13;5.75;;;7.50;99.90;;;;;;5067501;28;20563;-70
2021/04/02 02:17:02;;;;;;;18.00;6.05;;;7.50;99.90;;;;;;5065436;28;20421;-71
2021/04/02 02:19:30;;;;;;;13.30;5.43;;;7.50;99.90;;;;;;5066436;28;20056;-71
2021/04/02 02:22:00;;;;;;;15.52;5.85;;;7.50;99.90;;;;;;5069545;28;20033;-70
2021/04/02 02:24:28;;;;;;;12.00;5.80;;;7.50;99.90;;;;;;5063612;28;20490;-71
2021/04/02 02:26:55;;;;;;;12.48;6.20;;;7.50;99.90;;;;;;5062334;28;20388;-71
2021/04/02 02:29:21;;;;;;;15.82;6.90;;;7.50;99.90;;;;;;5062504;28;20480;-71
2021/04/02 02:31:46;;;;;;;17.30;6.18;;;7.50;99.90;;;;;;5063189;28;20031;-71
2021/04/02 02:34:12;;;;;;;20.77;6.32;;;7.40;99.90;;;;;;5060092;28;20048;-71
2021/04/02 02:36:38;;;;;;;20.23;7.05;;;7.40;99.90;;;;;;5065339;28;20024;-71
2021/04/02 02:39:08;;;;;;;14.02;6.03;;;7.50;99.90;;;;;;5069707;28;20037;-71
2021/04/02 02:41:35;;;;;;;11.20;6.03;;;7.30;99.90;;;;;;5069331;28;20008;-71
2021/04/02 02:44:01;;;;;;;16.02;6.97;;;7.30;99.90;;;;;;5065356;28;20040;-70
2021/04/02 02:46:28;;;;;;;10.90;5.90;;;7.20;99.90;;;;;;5065097;28;20029;-71
2021/04/02 02:49:00;;;;;;;14.30;6.43;;;7.20;99.90;;;;;;5062406;28;20029;-71
2021/04/02 02:51:31;;;;;;;10.82;5.68;;;7.20;99.90;;;;;;5069943;28;20465;-71
2021/04/02 02:54:02;;;;;;;19.00;7.53;;;7.30;99.90;;;;;;5063279;28;20078;-71
2021/04/02 02:56:31;;;;;;;19.05;6.50;;;7.30;99.90;;;;;;5065175;28;20051;-71
2021/04/02 02:59:00;;;;;;;16.95;5.82;;;7.20;99.90;;;;;;5066100;28;20082;-71
2021/04/02 03:01:27;;;;;;;14.93;6.90;;;7.20;99.90;;;;;;5068432;28;20446;-71
2021/04/02 03:03:53;;;;;;;15.65;6.57;;;7.10;99.90;;;;;;5065798;28;20036;-71
2021/04/02 03:06:22;;;;;;;17.40;6.93;;;7.20;99.90;;;;;;5066704;28;20020;-71
2021/04/02 03:08:52;;;;;;;16.75;6.57;;;7.10;99.90;;;;;;5067989;28;20025;-71
2021/04/02 03:11:20;;;;;;;15.48;6.22;;;7.10;99.90;;;;;;5065916;28;20028;-71
2021/04/02 03:13:48;;;;;;;15.90;6.57;;;7.10;99.90;;;;;;5067150;28;20495;-71
2021/04/02 03:16:15;;;;;;;14.88;6.40;;;7.00;99.90;;;;;;5066382;28;20047;-71
2021/04/02 03:18:41;;;;;;;17.92;6.90;;;6.90;99.90;;;;;;5065045;28;20028;-71
2021/04/02 03:21:08;;;;;;;19.05;6.72;;;7.00;99.90;;;;;;5058137;28;20040;-71
2021/04/02 03:23:35;;;;;;;18.83;6.15;;;7.00;99.90;;;;;;5063475;28;20477;-71
2021/04/02 03:26:02;;;;;;;18.45;7.07;;;6.90;99.90;;;;;;5069501;28;20085;-71
2021/04/02 03:28:29;;;;;;;16.65;7.40;;;7.00;99.90;;;;;;5065306;28;20060;-71
2021/04/02 03:30:55;;;;;;;12.18;6.30;;;6.80;99.90;;;;;;5066148;28;20048;-71
2021/04/02 03:33:27;;;;;;;15.88;6.13;;;6.90;99.90;;;;;;5068855;28;20064;-71
2021/04/02 03:36:01;;;;;;;19.92;7.10;;;6.80;99.90;;;;;;5061987;28;20701;-71
2021/04/02 03:38:32;;;;;;;20.30;6.13;;;6.80;99.90;;;;;;5064091;28;20036;-71
2021/04/02 03:41:00;;;;;;;15.90;6.25;;;6.80;99.90;;;;;;5061004;28;20115;-71
2021/04/02 03:43:28;;;;;;;16.98;6.35;;;6.80;99.90;;;;;;5067963;28;20036;-71
2021/04/02 03:45:55;;;;;;;13.95;6.13;;;6.70;99.90;;;;;;5066507;28;20085;-71
2021/04/02 03:48:23;;;;;;;13.13;5.95;;;6.60;99.90;;;;;;5069638;28;20050;-71
2021/04/02 03:50:54;;;;;;;19.23;6.50;;;6.70;99.90;;;;;;5069509;28;20028;-71
2021/04/02 03:53:44;;;;;;;18.98;6.55;;;6.70;99.90;;;;;;5067587;28;20098;-71
2021/04/02 03:56:16;;;;;;;14.95;5.50;;;6.70;99.90;;;;;;5070563;28;20028;-71
2021/04/02 03:58:44;;;;;;;20.83;6.00;;;6.70;99.90;;;;;;5062335;28;20033;-71
2021/04/02 04:01:13;;;;;;;15.18;6.30;;;6.70;99.90;;;;;;5068734;28;20047;-71
2021/04/02 04:03:44;;;;;;;14.30;5.03;;;6.60;99.90;;;;;;5066102;28;20099;-70
2021/04/02 04:06:14;;;;;;;17.80;5.78;;;6.70;99.90;;;;;;5070130;28;20115;-71
2021/04/02 04:08:41;;;;;;;14.15;5.55;;;6.70;99.90;;;;;;5069759;28;20035;-70
2021/04/02 04:11:09;;;;;;;15.57;5.60;;;6.70;99.90;;;;;;5071489;28;20120;-71
2021/04/02 04:13:37;;;;;;;17.48;5.05;;;6.60;99.90;;;;;;5068985;28;20138;-71
2021/04/02 04:16:04;;;;;;;15.73;6.90;;;6.70;99.90;;;;;;5064977;28;20419;-71
2021/04/02 04:18:33;;;;;;;13.90;5.75;;;6.70;99.90;;;;;;5069024;28;20086;-71
2021/04/02 04:21:01;;;;;;;15.75;5.20;;;6.70;99.90;;;;;;5066926;28;20443;-71
2021/04/02 04:23:28;;;;;;;18.63;6.03;;;6.70;99.90;;;;;;5065472;28;20147;-71
2021/04/02 04:25:57;;;;;;;12.43;6.32;;;6.70;99.90;;;;;;5067846;28;20025;-71
2021/04/02 04:28:23;;;;;;;16.20;6.00;;;6.70;99.90;;;;;;5068231;28;20058;-71
2021/04/02 04:30:53;;;;;;;18.02;6.25;;;6.70;99.90;;;;;;5061023;28;20025;-71
2021/04/02 04:33:20;;;;;;;19.92;6.10;;;6.70;99.90;;;;;;5065734;28;20464;-70
2021/04/02 04:35:47;;;;;;;15.48;5.28;;;6.60;99.90;;;;;;5057925;28;20024;-71
2021/04/02 04:38:14;;;;;;;11.10;5.43;;;6.70;99.90;;;;;;5066027;28;20112;-71
2021/04/02 04:40:41;;;;;;;14.85;5.55;;;6.60;99.90;;;;;;5062413;28;20021;-71
2021/04/02 04:43:12;;;;;;;14.75;5.25;;;6.60;99.90;;;;;;5063831;28;20402;-71
2021/04/02 04:45:37;;;;;;;15.95;5.10;;;6.70;99.90;;;;;;5070625;28;20020;-71
2021/04/02 04:48:03;;;;;;;11.27;5.50;;;6.70;99.90;;;;;;5065654;28;20465;-71
2021/04/02 04:50:30;;;;;;;13.73;4.75;;;6.60;99.90;;;;;;5062756;28;20040;-71
2021/04/02 04:53:11;;;;;;;11.93;4.88;;;6.50;99.90;;;;;;5069379;28;20401;-71
2021/04/02 04:55:40;;;;;;;15.38;4.70;;;6.60;99.90;;;;;;5064264;28;20036;-71
2021/04/02 04:58:10;;;;;;;14.25;5.13;;;6.50;99.90;;;;;;5066777;28;20043;-71
2021/04/02 05:00:37;;;;;;;20.00;5.40;;;6.50;99.90;;;;;;5070002;28;20020;-71
2021/04/02 05:03:04;;;;;;;12.70;5.22;;;6.50;99.90;;;;;;5069859;28;20468;-71
2021/04/02 05:05:33;;;;;;;13.23;4.30;;;6.50;99.90;;;;;;5069850;28;20035;-71
2021/04/02 05:08:02;;;;;;;14.30;4.78;;;6.50;99.90;;;;;;5064722;28;20036;-71
2021/04/02 05:10:30;;;;;;;15.93;4.93;;;6.50;99.90;;;;;;5071118;28;20016;-71
2021/04/02 05:12:57;;;;;;;10.70;4.45;;;6.50;99.90;;;;;;5068329;28;20036;-71
2021/04/02 05:15:23;;;;;;;13.95;4.85;;;6.60;99.90;;;;;;5068800;28;20515;-71
2021/04/02 05:17:51;;;;;;;16.73;4.80;;;6.50;99.90;;;;;;5069064;28;20036;-71
2021/04/02 05:20:20;;;;;;;16.33;6.10;;;6.50;99.90;;;;;;5066543;28;20078;-71
2021/04/02 05:22:45;;;;;;;16.67;4.47;;;6.50;99.90;;;;;;5071931;28;20103;-71
2021/04/02 05:25:11;;;;;;;13.13;5.05;;;6.50;99.90;;;;;;5071298;28;20116;-71
2021/04/02 05:27:37;;;;;;;10.88;3.83;;;6.50;99.90;;;;;;5068544;28;20108;-71
2021/04/02 05:30:05;;;;;;;16.33;5.00;;;6.50;99.90;;;;;;5068917;28;20158;-71
2021/04/02 05:32:30;;;;;;;15.45;4.47;;;6.50;99.90;;;;;;5071101;28;20028;-70
2021/04/02 05:34:56;;;;;;;12.43;4.65;;;6.50;99.90;;;;;;5062382;28;20481;-71
2021/04/02 05:37:22;;;;;;;8.65;4.25;;;6.60;99.90;;;;;;5063478;28;20488;-70
2021/04/02 05:39:47;;;;;;;13.48;4.22;;;6.70;99.90;;;;;;5063460;28;20031;-71
2021/04/02 05:42:21;;;;;;;13.75;5.07;;;6.70;99.90;;;;;;5063769;28;20028;-70
2021/04/02 05:44:49;;;;;;;8.90;4.88;;;6.70;99.90;;;;;;5068539;28;20122;-71
2021/04/02 05:47:17;;;;;;;14.70;4.72;;;6.80;99.90;;;;;;5065363;28;20020;-71
2021/04/02 05:49:44;;;;;;;15.00;5.15;;;6.80;99.90;;;;;;5066245;28;20024;-70
2021/04/02 05:52:12;;;;;;;7.40;3.80;;;6.80;99.90;;;;;;5068117;28;20082;-70
2021/04/02 05:54:43;;;;;;;14.52;4.43;;;6.90;99.90;;;;;;5069715;28;20103;-71
2021/04/02 05:57:09;;;;;;;14.45;4.82;;;6.90;99.90;;;;;;5059696;28;20036;-71
2021/04/02 05:59:41;;;;;;;10.40;4.95;;;6.90;99.90;;;;;;5068379;28;20489;-70
2021/04/02 06:02:08;;;;;;;12.60;5.25;;;7.00;99.90;;;;;;5067791;28;20025;-71
2021/04/02 06:04:36;;;;;;;14.95;4.38;;;6.90;99.90;;;;;;5060306;28;20029;-71
2021/04/02 06:07:01;;;;;;;9.15;4.80;;;6.90;99.90;;;;;;5067344;28;20099;-71
2021/04/02 06:09:27;;;;;;;10.32;4.60;;;6.90;99.90;;;;;;5060471;28;20433;-71
2021/04/02 06:11:53;;;;;;;14.32;5.25;;;6.90;99.90;;;;;;5064763;28;20044;-71
2021/04/02 06:14:19;;;;;;;14.30;5.32;;;7.00;99.90;;;;;;5064727;28;20031;-71
2021/04/02 06:16:52;;;;;;;10.75;5.00;;;7.00;99.90;;;;;;5062136;28;20055;-71
2021/04/02 06:19:18;;;;;;;12.77;4.82;;;7.00;99.90;;;;;;5060910;28;20029;-71
2021/04/02 06:21:49;;;;;;;12.43;5.35;;;7.10;99.90;;;;;;5068475;28;20447;-71
2021/04/02 06:24:33;;;;;;;16.65;4.93;;;7.00;99.90;;;;;;5063463;28;20032;-71
2021/04/02 06:27:00;;;;;;;8.50;4.93;;;7.10;99.90;;;;;;5063431;28;20480;-71
2021/04/02 06:29:28;;;;;;;16.48;6.38;;;7.20;99.90;;;;;;5063709;28;20021;-71
2021/04/02 06:31:54;;;;;;;15.18;5.53;;;7.20;99.90;;;;;;5063964;28;20037;-71
2021/04/02 06:34:21;;;;;;;14.13;5.35;;;7.20;99.90;;;;;;5064461;28;20507;-70
2021/04/02 06:36:49;;;;;;;13.77;5.93;;;7.10;99.90;;;;;;5060355;28;20029;-71
2021/04/02 06:39:15;;;;;;;13.55;5.88;;;7.20;99.90;;;;;;5068820;28;20028;-71
2021/04/02 06:41:42;;;;;;;19.88;6.15;;;7.30;99.90;;;;;;5065914;28;20069;-70
2021/04/02 06:44:10;;;;;;;13.10;4.93;;;7.30;99.90;;;;;;5068578;28;20027;-71
2021/04/02 06:46:40;;;;;;;19.33;6.20;;;7.20;99.90;;;;;;5067366;28;20013;-71
2021/04/02 06:49:17;;;;;;;11.45;5.45;;;7.30;99.90;;;;;;5061642;28;20458;-71
2021/04/02 06:51:44;;;;;;;12.95;6.15;;;7.40;99.90;;;;;;5061805;28;20031;-70
2021/04/02 06:54:13;;;;;;;11.50;6.03;;;7.40;99.90;;;;;;5066735;28;20032;-71
2021/04/02 06:56:42;;;;;;;17.45;6.97;;;7.40;99.90;;;;;;5066265;28;20094;-70
2021/04/02 06:59:10;;;;;;;10.93;6.65;;;7.30;99.90;;;;;;5060273;28;20036;-71
2021/04/02 07:01:38;;;;;;;16.75;6.18;;;7.40;99.90;;;;;;5064283;28;20021;-71
2021/04/02 07:04:04;;;;;;;18.58;5.80;;;7.30;99.90;;;;;;5069554;28;20024;-71
2021/04/02 07:06:30;;;;;;;24.27;6.07;;;7.40;99.90;;;;;;5062860;28;20017;-71
2021/04/02 07:08:58;;;;;;;15.30;5.60;;;7.40;99.90;;;;;;5070417;28;20032;-71
2021/04/02 07:11:25;;;;;;;10.80;5.88;;;7.30;99.90;;;;;;5070105;28;20025;-71
2021/04/02 07:13:53;;;;;;;10.88;5.82;;;7.00;99.90;;;;;;5066386;28;20031;-71
2021/04/02 07:16:20;;;;;;;14.57;5.00;;;7.00;99.90;;;;;;5063686;28;20036;-71
2021/04/02 07:18:47;;;;;;;14.57;5.70;;;6.80;99.90;;;;;;5058139;28;20044;-71
2021/04/02 07:21:14;;;;;;;12.80;5.43;;;7.00;99.90;;;;;;5055604;28;20017;-70
2021/04/02 07:23:42;;;;;;;15.90;5.25;;;7.10;99.90;;;;;;5062798;28;20032;-70
2021/04/02 07:26:08;;;;;;;11.50;5.55;;;7.30;99.90;;;;;;5067138;28;20388;-69
2021/04/02 07:28:35;;;;;;;9.35;4.82;;;7.40;99.90;;;;;;5065592;28;20091;-70
2021/04/02 07:31:02;;;;;;;10.68;4.93;;;7.30;99.90;;;;;;5059983;28;20381;-69
2021/04/02 07:33:28;;;;;;;13.40;5.35;;;7.40;99.90;;;;;;5068183;28;20024;-70
2021/04/02 07:36:00;;;;;;;16.50;5.40;;;7.50;99.90;;;;;;5067488;28;20421;-70
2021/04/02 07:38:28;;;;;;;16.13;5.25;;;7.60;99.90;;;;;;5057555;28;20500;-70
2021/04/02 07:40:55;;;;;;;12.77;5.10;;;7.50;99.90;;;;;;5058685;28;20075;-68
2021/04/02 07:43:21;;;;;;;16.48;6.00;;;7.50;99.90;;;;;;5066228;28;20115;-69
2021/04/02 07:45:52;;;;;;;11.75;4.80;;;7.50;99.90;;;;;;5060692;28;20025;-68
2021/04/02 07:48:24;;;;;;;17.75;5.13;;;7.40;99.90;;;;;;5041964;28;20254;-69
2021/04/02 07:51:00;;;;;;;14.38;4.47;;;7.50;99.90;;;;;;5062899;28;20037;-68
2021/04/02 07:53:25;;;;;;;14.00;4.47;;;7.70;99.90;;;;;;5058831;28;20029;-69
2021/04/02 07:56:06;;;;;;;16.10;4.43;;;8.00;99.90;;;;;;5066671;28;20154;-68
2021/04/02 07:58:33;;;;;;;13.05;4.65;;;8.30;99.90;;;;;;5061941;28;20052;-68
2021/04/02 08:01:01;;;;;;;10.65;4.20;;;8.50;99.90;;;;;;5065273;28;20024;-68
2021/04/02 08:03:33;;;;;;;14.02;3.85;;;8.60;99.90;;;;;;5061781;28;20099;-69
2021/04/02 08:06:08;;;;;;;11.48;4.32;;;8.70;99.90;;;;;;5055484;28;20062;-71
2021/04/02 08:08:46;;;;;;;13.60;4.22;;;8.80;99.90;;;;;;5061088;28;20056;-70
2021/04/02 08:11:26;;;;;;;11.68;4.22;;;8.90;99.90;;;;;;5066041;28;20050;-70
2021/04/02 08:13:58;;;;;;;12.30;4.93;;;8.90;99.90;;;;;;5054633;28;20123;-71
2021/04/02 08:16:27;;;;;;;11.07;4.43;;;8.90;99.90;;;;;;5067238;28;20396;-70
2021/04/02 08:19:12;;;;;;;12.07;4.20;;;8.60;99.90;;;;;;5064107;28;20055;-70
2021/04/02 08:21:40;;;;;;;18.00;4.32;;;8.60;99.90;;;;;;5067397;28;20528;-70
2021/04/02 08:24:08;;;;;;;12.68;4.53;;;8.70;99.90;;;;;;5062351;28;20155;-70
2021/04/02 08:26:35;;;;;;;12.75;3.90;;;9.00;99.90;;;;;;5057589;28;20021;-71
2021/04/02 08:29:04;;;;;;;13.85;3.78;;;9.00;99.90;;;;;;5066606;28;20081;-70
2021/04/02 08:31:30;;;;;;;9.38;3.55;;;9.10;99.90;;;;;;5068792;28;20029;-70
2021/04/02 08:33:56;;;;;;;11.88;3.70;;;9.30;99.90;;;;;;5061769;28;20055;-69
2021/04/02 08:36:23;;;;;;;9.20;3.90;;;9.20;99.90;;;;;;5067282;28;20480;-69
2021/04/02 08:38:50;;;;;;;8.48;3.78;;;9.30;99.90;;;;;;5066496;28;20128;-69
2021/04/02 08:41:21;;;;;;;14.13;3.50;;;9.40;99.90;;;;;;5065801;28;20025;-70
2021/04/02 08:43:47;;;;;;;11.68;3.90;;;9.50;99.90;;;;;;5065445;28;20060;-70
2021/04/02 08:46:17;;;;;;;17.95;3.90;;;9.70;99.90;;;;;;5061682;28;20464;-69
2021/04/02 08:48:46;;;;;;;12.57;3.90;;;9.70;99.90;;;;;;5064812;28;20032;-69
2021/04/02 08:51:22;;;;;;;12.93;3.67;;;9.80;99.90;;;;;;5066455;28;20071;-69
2021/04/02 08:53:48;;;;;;;14.20;4.03;;;9.80;99.90;;;;;;5063888;28;20442;-68
2021/04/02 08:56:18;;;;;;;13.10;3.28;;;9.80;99.90;;;;;;5069000;28;20032;-69
2021/04/02 08:58:45;;;;;;;8.25;3.08;;;9.80;99.90;;;;;;5073716;28;20106;-70
2021/04/02 09:01:13;;;;;;;9.70;3.38;;;9.80;99.90;;;;;;5071214;28;20083;-70
2021/04/02 09:03:39;;;;;;;16.95;3.58;;;9.70;99.90;;;;;;5060925;28;20028;-69
2021/04/02 09:06:05;;;;;;;10.80;2.97;;;9.70;99.90;;;;;;5069564;28;20024;-69
2021/04/02 09:08:34;;;;;;;10.20;3.15;;;9.90;99.90;;;;;;5064608;28;20039;-70
2021/04/02 09:11:00;;;;;;;17.00;3.78;;;10.00;99.90;;;;;;5074187;28;20020;-70
2021/04/02 09:13:41;;;;;;;17.42;3.35;;;10.50;99.90;;;;;;5067990;28;20033;-70
2021/04/02 09:16:12;;;;;;;10.70;3.65;;;10.80;99.90;;;;;;5071217;28;20021;-70
2021/04/02 09:18:47;;;;;;;11.98;2.90;;;10.90;99.90;;;;;;5065921;28;20552;-70
2021/04/02 09:21:13;;;;;;;12.82;3.20;;;10.90;99.90;;;;;;5059810;28;20103;-70
2021/04/02 09:23:39;;;;;;;12.55;2.80;;;10.80;99.90;;;;;;5070395;28;20025;-70
2021/04/02 09:26:08;;;;;;;14.25;2.85;;;10.60;99.90;;;;;;5063371;28;20093;-70
2021/04/02 09:28:36;;;;;;;9.10;2.85;;;10.40;99.90;;;;;;5072816;28;20029;-70
2021/04/02 09:31:20;;;;;;;8.25;2.40;;;10.30;99.90;;;;;;5072108;28;20472;-70
2021/04/02 09:33:52;;;;;;;10.73;2.78;;;10.70;99.90;;;;;;5066790;28;20594;-70
2021/04/02 09:36:19;;;;;;;11.77;3.58;;;11.00;99.90;;;;;;5068461;28;20476;-70
2021/04/02 09:38:45;;;;;;;10.75;2.78;;;11.10;99.90;;;;;;5076437;28;20028;-69
2021/04/02 09:41:13;;;;;;;17.45;2.80;;;11.50;99.90;;;;;;5062835;28;20029;-70
2021/04/02 09:43:48;;;;;;;15.20;3.83;;;11.90;99.60;;;;;;5073906;28;20025;-70
2021/04/02 09:46:35;;;;;;;9.95;4.07;;;11.80;99.90;;;;;;5068051;28;20061;-70
2021/04/02 09:49:13;;;;;;;12.70;3.58;;;11.50;99.90;;;;;;5072482;28;20024;-70
2021/04/02 09:51:42;;;;;;;13.00;3.22;;;11.30;99.90;;;;;;5069178;28;20032;-70
2021/04/02 09:54:08;;;;;;;12.60;3.20;;;11.20;99.90;;;;;;5059499;28;20515;-70
2021/04/02 09:56:36;;;;;;;10.00;3.17;;;11.20;99.90;;;;;;5064522;28;20116;-70
2021/04/02 09:59:03;;;;;;;14.23;3.20;;;11.10;99.90;;;;;;5069422;28;20039;-70
2021/04/02 10:01:30;;;;;;;8.13;3.30;;;11.20;99.80;;;;;;5072849;28;20030;-70
2021/04/02 10:03:56;;;;;;;9.25;3.28;;;11.20;99.70;;;;;;5067965;28;20020;-70
2021/04/02 10:06:21;;;;;;;9.18;2.65;;;11.10;99.80;;;;;;5062893;28;20028;-70
2021/04/02 10:08:47;;;;;;;6.63;2.75;;;11.00;99.90;;;;;;5063280;28;20098;-70
2021/04/02 10:11:13;;;;;;;11.55;3.05;;;11.10;99.90;;;;;;5066178;28;20008;-70
2021/04/02 10:13:38;;;;;;;10.82;3.53;;;11.00;99.80;;;;;;5066294;28;20182;-70
2021/04/02 10:16:05;;;;;;;10.13;2.97;;;11.00;99.90;;;;;;5065805;28;20020;-70
2021/04/02 10:18:31;;;;;;;10.02;3.13;;;10.90;99.90;;;;;;5063938;28;20119;-70
2021/04/02 10:20:56;;;;;;;12.90;3.17;;;11.00;99.60;;;;;;5068489;28;20029;-70
2021/04/02 10:23:22;;;;;;;7.43;3.00;;;11.00;99.60;;;;;;5065084;28;20103;-70
2021/04/02 10:25:48;;;;;;;5.53;2.50;;;11.00;99.70;;;;;;5054100;28;20060;-70
2021/04/02 10:28:14;;;;;;;9.52;2.38;;;11.00;99.90;;;;;;5067139;28;20035;-70
2021/04/02 10:30:40;;;;;;;8.02;3.05;;;11.10;99.10;;;;;;5067005;28;20020;-70
2021/04/02 10:33:06;;;;;;;9.90;2.58;;;11.00;99.00;;;;;;5069895;28;20024;-70
2021/04/02 10:35:33;;;;;;;10.48;3.15;;;11.00;98.70;;;;;;5061779;28;20021;-70
2021/04/02 10:37:59;;;;;;;11.30;2.55;;;10.90;99.30;;;;;;5068357;28;20045;-70
2021/04/02 10:40:25;;;;;;;13.52;3.40;;;11.20;99.50;;;;;;5069559;28;20023;-70
2021/04/02 10:42:51;;;;;;;9.50;2.85;;;11.40;98.50;;;;;;5068260;28;20389;-70
2021/04/02 10:45:17;;;;;;;11.93;2.80;;;11.70;97.30;;;;;;5061179;28;20021;-70
2021/04/02 10:47:42;;;;;;;7.15;2.63;;;12.00;96.90;;;;;;5068147;28;20028;-70
2021/04/02 10:50:09;;;;;;;10.68;2.83;;;12.30;95.60;;;;;;5067953;28;20468;-70
2021/04/02 10:52:35;;;;;;;7.45;2.40;;;12.50;96.00;;;;;;5062572;28;20476;-70
2021/04/02 10:55:01;;;;;;;7.80;2.72;;;12.40;95.90;;;;;;5065926;28;20510;-70
2021/04/02 10:57:26;;;;;;;8.43;2.33;;;12.30;96.30;;;;;;5070032;28;20032;-70
2021/04/02 10:59:52;;;;;;;11.05;2.95;;;12.20;95.90;;;;;;5056139;28;20040;-70
2021/04/02 11:02:18;;;;;;;7.93;2.75;;;12.00;96.00;;;;;;5063187;28;20122;-71
2021/04/02 11:04:43;;;;;;;9.30;2.63;;;12.00;96.50;;;;;;5063713;28;20489;-70
2021/04/02 11:07:09;;;;;;;9.55;2.95;;;12.00;96.00;;;;;;5071525;28;20048;-70
2021/04/02 11:09:35;;;;;;;8.60;2.85;;;12.40;96.20;;;;;;5065690;28;20021;-71
2021/04/02 11:12:01;;;;;;;7.28;2.60;;;12.20;94.90;;;;;;5066402;28;20033;-70
2021/04/02 11:14:27;;;;;;;11.98;3.30;;;11.90;94.70;;;;;;5060077;28;20040;-70
2021/04/02 11:16:52;;;;;;;7.13;2.38;;;11.90;94.40;;;;;;5067805;28;20130;-70
2021/04/02 11:19:18;;;;;;;8.52;2.63;;;12.10;93.70;;;;;;5061770;28;20033;-70
2021/04/02 11:21:43;;;;;;;9.02;2.72;;;12.40;94.20;;;;;;5065830;28;20036;-70
2021/04/02 11:24:09;;;;;;;4.90;2.65;;;12.70;95.10;;;;;;5062498;28;20473;-70
2021/04/02 11:26:35;;;;;;;7.43;2.55;;;12.90;95.20;;;;;;5065384;28;20108;-70
2021/04/02 11:29:01;;;;;;;7.88;3.00;;;12.90;94.20;;;;;;5073035;28;20121;-71
2021/04/02 11:31:26;;;;;;;7.15;2.47;;;12.50;93.80;;;;;;5066010;28;20067;-71
2021/04/02 11:33:52;;;;;;;8.00;2.60;;;12.40;93.90;;;;;;5063003;28;20031;-71
2021/04/02 11:36:18;;;;;;;8.10;2.13;;;12.70;94.30;;;;;;5061552;28;20051;-70
2021/04/02 11:38:43;;;;;;;10.00;2.50;;;13.00;93.50;;;;;;5063200;28;20040;-70
2021/04/02 11:41:10;;;;;;;3.25;2.15;;;13.20;93.30;;;;;;5071769;28;20085;-70
2021/04/02 11:43:35;;;;;;;8.52;2.47;;;13.50;94.40;;;;;;5070486;28;20017;-70
2021/04/02 11:46:01;;;;;;;5.30;2.58;;;13.70;93.00;;;;;;5065678;28;20074;-70
2021/04/02 11:48:27;;;;;;;10.00;3.20;;;13.50;93.70;;;;;;5068015;28;20044;-70
2021/04/02 11:50:53;;;;;;;8.00;2.75;;;13.20;93.60;;;;;;5073922;28;20033;-71
2021/04/02 11:53:18;;;;;;;7.22;2.50;;;13.30;93.20;;;;;;5065134;28;20043;-70
2021/04/02 11:55:44;;;;;;;6.60;2.70;;;13.50;93.20;;;;;;5066245;28;20165;-70
2021/04/02 11:58:10;;;;;;;7.68;3.15;;;13.40;94.20;;;;;;5071723;28;20047;-71
2021/04/02 12:00:35;;;;;;;5.28;2.85;;;13.60;93.50;;;;;;5073055;28;20044;-70
2021/04/02 12:03:01;;;;;;;9.60;3.00;;;13.60;93.60;;;;;;5062783;28;20024;-70
2021/04/02 12:05:27;;;;;;;7.68;2.70;;;13.60;93.10;;;;;;5065164;28;20138;-70
2021/04/02 12:07:52;;;;;;;9.45;3.50;;;13.70;93.80;;;;;;5067586;28;20387;-71
2021/04/02 12:10:19;;;;;;;6.22;2.38;;;13.40;93.40;;;;;;5066338;28;20024;-71
2021/04/02 12:12:44;;;;;;;6.65;3.25;;;13.40;93.00;;;;;;5073657;28;20554;-71
2021/04/02 12:15:11;;;;;;;7.53;2.67;;;13.50;92.20;;;;;;5066368;28;20054;-71
2021/04/02 12:17:36;;;;;;;7.63;2.90;;;13.50;92.20;;;;;;5069719;28;20119;-71
2021/04/02 12:20:05;;;;;;;7.25;3.00;;;13.60;92.40;;;;;;5072876;28;20161;-71
2021/04/02 12:22:31;;;;;;;6.63;3.05;;;13.20;91.80;;;;;;5073121;28;20048;-70
2021/04/02 12:24:56;;;;;;;9.52;3.38;;;13.10;92.10;;;;;;5075495;28;20196;-70
2021/04/02 12:27:22;;;;;;;6.22;2.65;;;12.80;92.00;;;;;;5065749;28;20481;-71
2021/04/02 12:29:48;;;;;;;9.88;3.08;;;12.70;92.40;;;;;;5068117;28;20495;-71
2021/04/02 12:32:14;;;;;;;10.45;2.95;;;12.40;92.80;;;;;;5080071;28;20019;-70
2021/04/02 12:34:40;;;;;;;5.43;2.72;;;12.20;93.40;;;;;;5068701;28;20107;-70
2021/04/02 12:37:06;;;;;;;6.18;2.65;;;12.50;93.60;;;;;;5066661;28;20031;-71
2021/04/02 12:39:31;;;;;;;5.53;2.67;;;12.60;93.80;;;;;;5071702;28;20040;-70
2021/04/02 12:41:57;;;;;;;17.48;3.28;;;13.00;94.30;;;;;;5064686;28;20029;-70
2021/04/02 12:44:22;;;;;;;10.68;3.45;;;13.00;93.00;;;;;;5069237;28;20031;-70
2021/04/02 12:46:48;;;;;;;6.05;3.00;;;13.00;92.80;;;;;;5067841;28;20534;-71
2021/04/02 12:49:14;;;;;;;8.40;3.83;;;13.00;93.10;;;;;;5071613;28;20060;-70
2021/04/02 12:51:39;;;;;;;6.13;3.15;;;12.90;92.40;;;;;;5068509;28;20028;-70